createdAt,value
2022-10-13T04:15:28.023Z,100558.28
2022-10-13T04:17:54.495Z,100562.63
2022-10-13T04:20:20.893Z,100569.59
2022-10-13T04:22:50.206Z,100570.44
2022-10-13T04:25:16.937Z,100566.91
2022-10-13T04:27:43.611Z,100576.41
2022-10-13T04:30:22.328Z,100574.69
2022-10-13T04:32:56.235Z,100577.28
2022-10-13T04:35:32.422Z,100573.72
2022-10-13T04:37:59.323Z,100579.81
2022-10-13T04:40:27.871Z,100571.97
2022-10-13T04:42:58.403Z,100567.59
2022-10-13T04:45:24.888Z,100576.31
2022-10-13T04:47:51.392Z,100571.13
2022-10-13T04:50:21.653Z,100571.97
2022-10-13T04:52:59.097Z,100569.34
2022-10-13T04:55:25.578Z,100562.34
2022-10-13T04:57:52.067Z,100558.91
2022-10-13T05:00:24.126Z,100558.84
2022-10-13T05:02:50.714Z,100558.00
2022-10-13T05:05:29.582Z,100552.75
2022-10-13T05:07:56.038Z,100562.38
2022-10-13T05:10:22.451Z,100554.56
2022-10-13T05:12:48.883Z,100554.63
2022-10-13T05:15:15.367Z,100550.22
2022-10-13T05:17:43.067Z,100540.56
2022-10-13T05:20:20.732Z,100539.75
2022-10-13T05:22:47.628Z,100539.75
2022-10-13T05:25:16.359Z,100531.81
2022-10-13T05:27:42.921Z,100537.03
2022-10-13T05:30:10.011Z,100536.13
2022-10-13T05:32:36.535Z,100539.63
2022-10-13T05:35:03.436Z,100536.06
2022-10-13T05:37:30.022Z,100538.63
2022-10-13T05:39:57.569Z,100536.88
2022-10-13T05:42:24.077Z,100537.78
2022-10-13T05:44:52.627Z,100534.31
2022-10-13T05:47:19.123Z,100527.25
2022-10-13T05:49:45.577Z,100522.81
2022-10-13T05:52:12.785Z,100524.53
2022-10-13T05:54:47.233Z,100515.81
2022-10-13T05:57:25.912Z,100526.28
2022-10-13T06:00:01.816Z,100519.31
2022-10-13T06:02:51.992Z,100518.50
2022-10-13T06:05:20.981Z,100521.97
2022-10-13T06:07:53.380Z,100518.34
2022-10-13T06:10:20.051Z,100528.97
2022-10-13T06:12:51.483Z,100523.69
2022-10-13T06:15:17.940Z,100527.22
2022-10-13T06:17:44.668Z,100534.28
2022-10-13T06:20:11.383Z,100531.53
2022-10-13T06:22:38.705Z,100534.09
2022-10-13T06:25:07.063Z,100539.41
2022-10-13T06:27:33.559Z,100545.59
2022-10-13T06:29:59.974Z,100539.41
2022-10-13T06:32:26.435Z,100530.22
2022-10-13T06:34:53.833Z,100530.09
2022-10-13T06:37:24.689Z,100523.13
2022-10-13T06:39:53.587Z,100529.97
2022-10-13T06:42:21.545Z,100532.78
2022-10-13T06:45:04.893Z,100538.84
2022-10-13T06:47:31.557Z,100530.06
2022-10-13T06:49:57.972Z,100524.56
2022-10-13T06:52:24.455Z,100523.47
2022-10-13T06:54:52.932Z,100527.00
2022-10-13T06:57:19.385Z,100528.56
2022-10-13T06:59:45.839Z,100526.91
2022-10-13T07:02:12.377Z,100531.97
2022-10-13T07:04:38.810Z,100522.41
2022-10-13T07:07:05.279Z,100530.06
2022-10-13T07:09:31.828Z,100524.56
2022-10-13T07:11:59.280Z,100527.00
2022-10-13T07:14:26.069Z,100530.25
2022-10-13T07:16:53.091Z,100530.03
2022-10-13T07:19:19.632Z,100527.13
2022-10-13T07:21:46.069Z,100517.34
2022-10-13T07:24:12.694Z,100519.78
2022-10-13T07:26:39.194Z,100520.53
2022-10-13T07:29:05.980Z,100512.31
2022-10-13T07:31:32.466Z,100515.81
2022-10-13T07:34:02.183Z,100514.84
2022-10-13T07:36:31.052Z,100506.69
2022-10-13T07:39:01.023Z,100511.13
2022-10-13T07:41:27.487Z,100517.31
2022-10-13T07:43:56.481Z,100524.00
2022-10-13T07:46:23.284Z,100517.00
2022-10-13T07:48:49.830Z,100513.53
2022-10-13T07:51:17.285Z,100516.06
2022-10-13T07:53:48.634Z,100507.38
2022-10-13T07:56:20.474Z,100518.69
2022-10-13T07:58:50.057Z,100518.34
2022-10-13T08:01:17.932Z,100521.53
2022-10-13T08:03:48.966Z,100519.66
2022-10-13T08:06:18.365Z,100524.66
2022-10-13T08:08:44.897Z,100525.28
2022-10-13T08:11:17.499Z,100523.72
2022-10-13T08:13:52.328Z,100521.53
2022-10-13T08:16:22.151Z,100522.22
2022-10-13T08:19:17.069Z,100515.47
2022-10-13T08:22:01.868Z,100518.91
2022-10-13T08:24:29.410Z,100516.13
2022-10-13T08:26:56.295Z,100517.81
2022-10-13T08:29:28.547Z,100520.31
2022-10-13T08:31:55.765Z,100512.56
2022-10-13T08:34:23.873Z,100516.09
2022-10-13T08:36:53.457Z,100495.38
2022-10-13T08:39:22.294Z,100493.00
2022-10-13T08:41:49.230Z,100499.50
2022-10-13T08:47:53.377Z,100495.91
2022-10-13T08:50:23.911Z,100510.38
2022-10-13T08:53:05.768Z,100519.97
2022-10-13T08:55:41.349Z,100516.13
2022-10-13T08:58:34.952Z,100516.63
2022-10-13T09:01:12.908Z,100528.06
2022-10-13T09:04:08.094Z,100523.22
2022-10-13T09:06:49.569Z,100505.94
2022-10-13T09:09:16.846Z,100508.53
2022-10-13T09:11:50.370Z,100511.06
2022-10-13T09:14:24.471Z,100513.84
2022-10-13T09:16:52.348Z,100513.75
2022-10-13T09:19:36.817Z,100510.44
2022-10-13T09:22:41.184Z,100517.53
2022-10-13T09:25:07.587Z,100509.59
2022-10-13T09:27:50.181Z,100511.78
2022-10-13T09:30:33.798Z,100521.34
2022-10-13T09:33:11.734Z,100518.88
2022-10-13T09:35:44.277Z,100505.59
2022-10-13T09:38:15.968Z,100517.00
2022-10-13T09:43:35.040Z,100495.78
2022-10-13T09:46:04.233Z,100502.31
2022-10-13T09:48:36.684Z,100508.59
2022-10-13T09:51:03.376Z,100507.94
2022-10-13T09:53:39.966Z,100510.63
2022-10-13T09:56:25.750Z,100514.81
2022-10-13T09:59:05.983Z,100503.50
2022-10-13T10:01:41.267Z,100509.94
2022-10-13T10:04:20.484Z,100511.53
2022-10-13T10:06:46.976Z,100507.09
2022-10-13T10:09:38.686Z,100515.38
2022-10-13T10:12:06.207Z,100499.94
2022-10-13T10:14:39.247Z,100493.22
2022-10-13T10:17:36.721Z,100484.22
2022-10-13T10:20:49.438Z,100492.53
2022-10-13T10:23:29.095Z,100486.22
2022-10-13T10:26:10.530Z,100493.00
2022-10-13T10:28:47.476Z,100471.75
2022-10-13T10:31:37.273Z,100466.88
2022-10-13T10:34:38.058Z,100460.00
2022-10-13T10:37:25.538Z,100453.88
2022-10-13T10:40:29.214Z,100460.84
2022-10-13T10:43:15.846Z,100456.72
2022-10-13T10:45:43.372Z,100461.78
2022-10-13T10:48:34.752Z,100471.34
2022-10-13T10:51:02.040Z,100465.97
2022-10-13T10:53:47.131Z,100465.16
2022-10-13T10:56:28.821Z,100469.91
2022-10-13T10:59:29.595Z,100451.78
2022-10-13T11:02:34.565Z,100438.56
2022-10-13T11:05:06.325Z,100449.56
2022-10-13T11:07:33.267Z,100458.03
2022-10-13T11:10:27.937Z,100456.81
2022-10-13T11:12:55.183Z,100442.31
2022-10-13T11:15:24.595Z,100432.78
2022-10-13T11:17:52.207Z,100419.00
2022-10-13T11:24:42.761Z,100408.66
2022-10-13T11:27:13.876Z,100397.75
2022-10-13T11:30:41.517Z,100391.31
2022-10-13T11:33:33.340Z,100387.72
2022-10-13T11:36:29.484Z,100384.66
2022-10-13T11:39:28.881Z,100382.25
2022-10-13T11:42:36.443Z,100391.56
2022-10-13T11:45:17.411Z,100386.25
2022-10-13T11:48:21.675Z,100374.34
2022-10-13T11:51:12.579Z,100367.13
2022-10-13T11:53:57.927Z,100359.38
2022-10-13T11:56:51.562Z,100368.97
2022-10-13T11:59:22.626Z,100370.13
2022-10-13T12:01:54.568Z,100367.97
2022-10-13T12:04:23.480Z,100371.44
2022-10-13T12:07:17.104Z,100366.38
2022-10-13T12:09:52.330Z,100358.81
2022-10-13T12:12:23.417Z,100358.25
2022-10-13T12:14:55.135Z,100354.44
2022-10-13T12:17:26.172Z,100357.09
2022-10-13T12:19:54.632Z,100357.88
2022-10-13T12:22:21.117Z,100358.94
2022-10-13T12:24:59.572Z,100363.38
2022-10-13T12:27:27.896Z,100357.88
2022-10-13T12:29:54.796Z,100361.53
2022-10-13T12:32:24.097Z,100353.34
2022-10-13T12:34:51.049Z,100357.41
2022-10-13T12:37:33.364Z,100354.31
2022-10-13T12:40:01.189Z,100345.59
2022-10-13T12:42:31.264Z,100346.34
2022-10-13T12:44:59.475Z,100335.44
2022-10-13T12:47:53.519Z,100334.03
2022-10-13T12:50:38.678Z,100323.03
2022-10-13T12:53:08.252Z,100322.78
2022-10-13T12:55:45.284Z,100317.25
2022-10-13T12:58:21.512Z,100323.63
2022-10-13T13:01:03.773Z,100336.19
2022-10-13T13:03:36.292Z,100332.94
2022-10-13T13:06:13.163Z,100325.03
2022-10-13T13:08:42.126Z,100318.72
2022-10-13T13:11:32.806Z,100312.00
2022-10-13T13:14:37.175Z,100324.03
2022-10-13T13:17:06.948Z,100308.28
2022-10-13T13:19:36.437Z,100308.94
2022-10-13T13:22:06.268Z,100306.78
2022-10-13T13:24:40.251Z,100303.00
2022-10-13T13:27:27.974Z,100307.66
2022-10-13T13:29:55.863Z,100310.84
2022-10-13T13:32:27.785Z,100318.97
2022-10-13T13:34:55.689Z,100308.16
2022-10-13T13:37:30.855Z,100300.63
2022-10-13T13:39:58.556Z,100299.38
2022-10-13T13:42:27.020Z,100310.06
2022-10-13T13:44:56.215Z,100303.56
2022-10-13T13:47:26.039Z,100311.47
2022-10-13T13:49:54.805Z,100318.41
2022-10-13T13:52:21.947Z,100310.88
2022-10-13T13:54:50.768Z,100304.41
2022-10-13T13:57:18.064Z,100301.44
2022-10-13T13:59:44.962Z,100302.91
2022-10-13T14:02:20.387Z,100290.84
2022-10-13T14:04:47.277Z,100292.50
2022-10-13T14:07:16.792Z,100286.09
2022-10-13T14:10:16.814Z,100287.13
2022-10-13T14:12:43.361Z,100272.50
2022-10-13T14:15:10.334Z,100273.63
2022-10-13T14:17:36.822Z,100276.88
2022-10-13T14:20:03.893Z,100281.31
2022-10-13T14:22:33.124Z,100281.56
2022-10-13T14:24:59.590Z,100286.44
2022-10-13T14:27:26.103Z,100287.97
2022-10-13T14:29:54.750Z,100287.47
2022-10-13T14:32:24.372Z,100293.03
2022-10-13T14:34:50.864Z,100293.50
2022-10-13T14:37:20.883Z,100299.78
2022-10-13T14:39:49.524Z,100284.16
2022-10-13T14:42:15.959Z,100278.38
2022-10-13T14:44:42.395Z,100285.16
2022-10-13T14:47:08.945Z,100286.22
2022-10-13T14:49:37.929Z,100281.59
2022-10-13T14:52:04.736Z,100281.34
2022-10-13T14:54:31.521Z,100283.81
2022-10-13T14:57:00.842Z,100277.81
2022-10-13T14:59:27.575Z,100280.84
2022-10-13T15:01:53.975Z,100278.84
2022-10-13T15:04:20.455Z,100279.38
2022-10-13T15:06:46.919Z,100280.31
2022-10-13T15:09:13.439Z,100271.81
2022-10-13T15:11:39.920Z,100270.34
2022-10-13T15:14:07.409Z,100275.31
2022-10-13T15:16:34.019Z,100273.63
2022-10-13T15:19:00.546Z,100263.56
2022-10-13T15:21:27.140Z,100269.00
2022-10-13T15:23:53.629Z,100261.94
2022-10-13T15:26:20.738Z,100258.00
2022-10-13T15:28:50.018Z,100258.53
2022-10-13T15:31:18.363Z,100258.41
2022-10-13T15:33:46.995Z,100260.44
2022-10-13T15:36:14.319Z,100259.53
2022-10-13T15:38:40.925Z,100260.94
2022-10-13T15:41:07.899Z,100255.50
2022-10-13T15:43:34.577Z,100257.94
2022-10-13T15:46:12.354Z,100254.75
2022-10-13T15:48:43.540Z,100259.50
2022-10-13T15:51:19.542Z,100259.44
2022-10-13T15:53:47.670Z,100259.66
2022-10-13T15:56:17.780Z,100262.69
2022-10-13T15:58:45.368Z,100264.78
2022-10-13T16:01:13.822Z,100262.81
2022-10-13T16:03:41.161Z,100261.16
2022-10-13T16:06:10.001Z,100268.41
2022-10-13T16:08:41.378Z,100266.22
2022-10-13T16:11:09.417Z,100271.56
2022-10-13T16:13:36.365Z,100265.53
2022-10-13T16:16:02.984Z,100255.28
2022-10-13T16:18:30.895Z,100262.75
2022-10-13T16:20:57.465Z,100260.16
2022-10-13T16:23:28.703Z,100264.16
2022-10-13T16:25:55.158Z,100254.22
2022-10-13T16:28:21.825Z,100258.50
2022-10-13T16:30:48.380Z,100258.34
2022-10-13T16:33:15.010Z,100265.09
2022-10-13T16:35:41.687Z,100261.16
2022-10-13T16:38:08.903Z,100260.56
2022-10-13T16:40:38.988Z,100264.47
2022-10-13T16:43:06.554Z,100256.47
2022-10-13T16:48:32.175Z,100253.81
2022-10-13T16:50:59.390Z,100250.22
2022-10-13T16:57:03.194Z,100255.13
2022-10-13T16:59:29.734Z,100261.03
2022-10-13T17:01:59.430Z,100259.38
2022-10-13T17:04:31.674Z,100263.56
2022-10-13T17:06:58.308Z,100259.94
2022-10-13T17:09:25.450Z,100264.41
2022-10-13T17:11:57.837Z,100254.81
2022-10-13T17:14:24.850Z,100258.41
2022-10-13T17:16:56.744Z,100259.44
2022-10-13T17:19:24.207Z,100260.66
2022-10-13T17:21:50.634Z,100249.44
2022-10-13T17:24:17.269Z,100250.78
2022-10-13T17:26:49.380Z,100253.22
2022-10-13T17:29:46.479Z,100255.66
2022-10-13T17:32:13.472Z,100265.03
2022-10-13T17:34:39.986Z,100257.88
2022-10-13T17:37:07.163Z,100261.59
2022-10-13T17:39:33.812Z,100257.22
2022-10-13T17:42:00.243Z,100259.19
2022-10-13T17:44:26.752Z,100258.16
2022-10-13T17:46:53.218Z,100257.22
2022-10-13T17:49:19.671Z,100254.00
2022-10-13T17:51:49.965Z,100262.16
2022-10-13T17:54:16.921Z,100257.00
2022-10-13T17:56:45.153Z,100253.13
2022-10-13T17:59:17.198Z,100258.28
2022-10-13T18:01:44.852Z,100257.47
2022-10-13T18:04:14.246Z,100253.53
2022-10-13T18:06:43.801Z,100255.06
2022-10-13T18:09:16.678Z,100257.25
2022-10-13T18:11:49.772Z,100249.16
2022-10-13T18:14:17.960Z,100260.22
2022-10-13T18:16:44.879Z,100248.53
2022-10-13T18:19:12.466Z,100250.41
2022-10-13T18:21:38.880Z,100249.78
2022-10-13T18:24:05.727Z,100245.69
2022-10-13T18:26:35.673Z,100249.69
2022-10-13T18:29:03.743Z,100249.59
2022-10-13T18:31:32.689Z,100245.78
2022-10-13T18:34:04.814Z,100240.81
2022-10-13T18:36:34.558Z,100247.22
2022-10-13T18:39:08.433Z,100239.94
2022-10-13T18:41:37.269Z,100245.28
2022-10-13T18:44:05.083Z,100243.59
2022-10-13T18:46:36.239Z,100254.81
2022-10-13T18:49:04.317Z,100253.16
2022-10-13T18:51:35.632Z,100249.97
2022-10-13T18:54:03.409Z,100242.06
2022-10-13T18:56:31.272Z,100250.16
2022-10-13T18:59:00.359Z,100252.63
2022-10-13T19:01:29.516Z,100257.47
2022-10-13T19:03:56.451Z,100247.69
2022-10-13T19:06:27.031Z,100244.91
2022-10-13T19:08:58.494Z,100247.97
2022-10-13T19:11:25.094Z,100245.88
2022-10-13T19:13:52.428Z,100244.84
2022-10-13T19:16:22.225Z,100246.66
2022-10-13T19:18:49.206Z,100236.31
2022-10-13T19:21:16.950Z,100237.44
2022-10-13T19:23:43.653Z,100246.25
2022-10-13T19:26:25.495Z,100242.28
2022-10-13T19:29:07.964Z,100243.28
2022-10-13T19:31:35.818Z,100242.88
2022-10-13T19:34:07.373Z,100235.41
2022-10-13T19:36:37.709Z,100231.84
2022-10-13T19:39:07.022Z,100234.59
2022-10-13T19:41:34.177Z,100237.84
2022-10-13T19:44:02.151Z,100241.38
2022-10-13T19:46:38.841Z,100244.25
2022-10-13T19:49:05.358Z,100237.31
2022-10-13T19:51:33.369Z,100244.56
2022-10-13T19:54:00.398Z,100242.81
2022-10-13T19:56:31.314Z,100238.47
2022-10-13T19:58:58.424Z,100230.25
2022-10-13T20:01:24.948Z,100225.53
2022-10-13T20:03:51.503Z,100229.88
2022-10-13T20:06:18.818Z,100233.19
2022-10-13T20:08:45.755Z,100232.91
2022-10-13T20:11:24.497Z,100239.88
2022-10-13T20:13:52.087Z,100239.25
2022-10-13T20:16:21.453Z,100235.34
2022-10-13T20:18:59.201Z,100238.00
2022-10-13T20:21:27.386Z,100242.63
2022-10-13T20:23:54.205Z,100248.38
2022-10-13T20:26:21.039Z,100244.25
2022-10-13T20:28:48.998Z,100254.81
2022-10-13T20:31:17.643Z,100247.56
2022-10-13T20:33:44.716Z,100255.25
2022-10-13T20:36:13.488Z,100255.66
2022-10-13T20:38:40.323Z,100252.06
2022-10-13T20:41:15.810Z,100254.53
2022-10-13T20:43:42.255Z,100248.38
2022-10-13T20:46:09.229Z,100249.28
2022-10-13T20:49:05.174Z,100251.34
2022-10-13T20:51:24.670Z,100252.03
2022-10-13T20:53:51.944Z,100250.97
2022-10-13T20:56:23.813Z,100252.03
2022-10-13T20:58:51.222Z,100243.59
2022-10-13T21:01:20.830Z,100249.69
2022-10-13T21:03:54.206Z,100245.38
2022-10-13T21:06:22.244Z,100246.97
2022-10-13T21:08:49.110Z,100232.28
2022-10-13T21:11:17.733Z,100232.06
2022-10-13T21:13:45.084Z,100234.25
2022-10-13T21:16:13.915Z,100237.13
2022-10-13T21:18:40.824Z,100230.47
2022-10-13T21:21:10.342Z,100236.28
2022-10-13T21:23:37.602Z,100233.97
2022-10-13T21:26:06.431Z,100239.72
2022-10-13T21:28:33.988Z,100235.66
2022-10-13T21:31:06.037Z,100237.75
2022-10-13T21:33:35.819Z,100238.97
2022-10-13T21:36:25.797Z,100240.59
2022-10-13T21:38:55.717Z,100237.06
2022-10-13T21:41:23.111Z,100238.72
2022-10-13T21:43:50.987Z,100239.31
2022-10-13T21:46:23.620Z,100235.06
2022-10-13T21:48:57.828Z,100238.63
2022-10-13T21:51:33.132Z,100240.00
2022-10-13T21:54:03.685Z,100245.28
2022-10-13T21:56:31.285Z,100242.22
2022-10-13T21:58:58.996Z,100248.69
